Time;durP1;ratioP1;P1;durP2;ratioP2;P2;SDS_P1;SDS_P2;PMS_P1;PMS_P2;Temp;Humidity;BMP_temperature;BMP_pressure;BME280_temperature;BME280_humidity;BME280_pressure;Samples;Min_cycle;Max_cycle;Signal;HPM_P1;HPM_P2
2022/08/28 00:01:52;;;;;;;1.30;0.43;;;22.50;57.00;;;;;;5113821;28;20502;-67
2022/08/28 00:04:18;;;;;;;1.73;0.38;;;22.50;57.00;;;;;;5114030;28;20065;-67
2022/08/28 00:06:44;;;;;;;1.20;0.40;;;22.50;57.00;;;;;;5113965;28;20499;-67
2022/08/28 00:09:11;;;;;;;1.38;0.50;;;22.50;57.00;;;;;;5113725;28;20605;-67
2022/08/28 00:11:37;;;;;;;1.52;0.52;;;22.40;57.00;;;;;;5113221;28;20043;-67
2022/08/28 00:14:04;;;;;;;1.40;0.60;;;22.50;57.10;;;;;;5113856;28;20047;-67
2022/08/28 00:16:30;;;;;;;0.88;0.40;;;22.40;57.00;;;;;;5114997;28;20148;-67
2022/08/28 00:18:56;;;;;;;1.52;0.40;;;22.40;57.00;;;;;;5113363;28;20406;-67
2022/08/28 00:21:22;;;;;;;0.98;0.47;;;22.40;57.00;;;;;;5113474;28;20074;-67
2022/08/28 00:23:47;;;;;;;3.10;0.50;;;22.40;57.00;;;;;;5114815;28;20043;-67
2022/08/28 00:27:51;;;;;;;1.85;0.55;;;22.40;57.00;;;;;;5113630;28;20043;-67
2022/08/28 00:28:59;;;;;;;1.27;0.30;;;22.40;57.00;;;;;;5113134;28;20044;-67
2022/08/28 00:31:25;;;;;;;1.35;0.40;;;22.40;57.00;;;;;;5113410;28;20039;-67
2022/08/28 00:33:51;;;;;;;1.40;0.47;;;22.40;57.00;;;;;;5113257;28;20127;-67
2022/08/28 00:36:17;;;;;;;1.30;0.57;;;22.40;57.00;;;;;;5113283;28;20042;-67
2022/08/28 00:38:43;;;;;;;0.98;0.50;;;22.40;57.00;;;;;;5112764;28;20094;-67
2022/08/28 00:41:09;;;;;;;3.90;0.60;;;22.40;57.00;;;;;;5113270;28;20090;-67
2022/08/28 00:46:18;;;;;;;1.58;0.70;;;22.30;57.00;;;;;;5130749;27;20371;-67
2022/08/28 00:48:44;;;;;;;1.60;0.43;;;22.30;57.00;;;;;;5130760;27;20455;-67
2022/08/28 00:53:59;;;;;;;1.67;0.40;;;22.30;57.00;;;;;;5128993;28;20487;-67
2022/08/28 00:56:27;;;;;;;0.95;0.30;;;22.30;57.80;;;;;;5128873;28;20118;-67
2022/08/28 00:58:55;;;;;;;1.88;0.35;;;22.30;57.10;;;;;;5128564;28;20044;-67
2022/08/28 01:01:21;;;;;;;2.05;0.45;;;22.30;57.00;;;;;;5128748;28;20313;-67
2022/08/28 01:03:47;;;;;;;2.70;0.82;;;22.30;57.00;;;;;;5128857;28;20040;-67
2022/08/28 01:06:14;;;;;;;0.93;0.40;;;22.30;57.10;;;;;;5129747;27;20027;-67
2022/08/28 01:08:43;;;;;;;1.67;0.40;;;22.30;57.00;;;;;;5128622;27;20044;-67
2022/08/28 01:11:11;;;;;;;1.80;0.77;;;22.30;57.10;;;;;;5129817;27;20035;-67
2022/08/28 01:13:40;;;;;;;1.40;0.40;;;22.30;57.10;;;;;;5128784;28;20062;-67
2022/08/28 01:16:06;;;;;;;1.85;0.60;;;22.30;57.00;;;;;;5128944;28;20431;-67
2022/08/28 01:18:33;;;;;;;2.53;0.50;;;22.30;57.00;;;;;;5128666;28;20547;-67
2022/08/28 01:23:58;;;;;;;2.05;0.30;;;22.30;57.00;;;;;;5089455;28;20426;-67
2022/08/28 01:26:27;;;;;;;1.23;0.30;;;22.30;57.00;;;;;;5088134;28;20358;-67
2022/08/28 01:28:53;;;;;;;1.25;0.70;;;22.30;57.00;;;;;;5088344;28;20083;-67
2022/08/28 01:31:20;;;;;;;1.30;0.50;;;22.20;57.00;;;;;;5088394;28;20434;-67
2022/08/28 01:33:46;;;;;;;3.65;0.47;;;22.30;57.00;;;;;;5088335;28;20146;-67
2022/08/28 01:36:13;;;;;;;0.93;0.40;;;22.30;57.10;;;;;;5089288;28;20400;-67
2022/08/28 01:38:41;;;;;;;1.08;0.32;;;22.20;57.00;;;;;;5089167;28;20107;-67
2022/08/28 01:41:09;;;;;;;1.20;0.40;;;22.20;57.00;;;;;;5087800;28;20119;-67
2022/08/28 01:43:35;;;;;;;1.13;0.40;;;22.20;57.00;;;;;;5087867;28;20496;-67
2022/08/28 01:46:04;;;;;;;1.92;0.30;;;22.20;57.00;;;;;;5088006;28;20079;-67
2022/08/28 01:48:33;;;;;;;1.85;0.43;;;22.20;57.00;;;;;;5087780;28;20064;-67
2022/08/28 01:50:58;;;;;;;1.58;0.50;;;22.20;57.00;;;;;;5087588;28;20040;-67
2022/08/28 01:53:26;;;;;;;1.23;0.60;;;22.20;57.00;;;;;;5087932;28;20079;-67
2022/08/28 01:55:55;;;;;;;1.08;0.40;;;22.20;57.00;;;;;;5087514;28;20047;-67
2022/08/28 01:58:22;;;;;;;1.35;0.63;;;22.20;57.00;;;;;;5088993;28;20044;-67
2022/08/28 02:00:48;;;;;;;1.08;0.50;;;22.20;57.00;;;;;;5088812;28;20442;-67
2022/08/28 02:03:13;;;;;;;1.85;0.60;;;22.20;57.00;;;;;;5087484;28;20097;-67
2022/08/28 02:05:40;;;;;;;1.00;0.57;;;22.20;57.00;;;;;;5088700;28;20032;-67
2022/08/28 02:08:07;;;;;;;1.75;0.82;;;22.20;57.00;;;;;;5087483;28;20072;-67
2022/08/28 02:10:35;;;;;;;1.25;0.50;;;22.20;57.00;;;;;;5087454;28;20496;-67
2022/08/28 02:13:03;;;;;;;1.42;0.40;;;22.20;57.00;;;;;;5087199;28;20072;-67
2022/08/28 02:15:30;;;;;;;1.35;0.70;;;22.20;57.00;;;;;;5087240;28;20040;-67
2022/08/28 02:17:56;;;;;;;1.67;0.40;;;22.10;57.00;;;;;;5087113;28;20048;-67
2022/08/28 02:20:23;;;;;;;1.60;0.40;;;22.10;57.00;;;;;;5087551;28;20042;-67
2022/08/28 02:22:49;;;;;;;1.00;0.40;;;22.10;57.00;;;;;;5086724;28;20067;-67
2022/08/28 02:25:15;;;;;;;1.00;0.55;;;22.10;57.00;;;;;;5087032;28;20070;-67
2022/08/28 02:27:41;;;;;;;2.63;0.82;;;22.10;56.90;;;;;;5088365;28;20129;-67
2022/08/28 02:30:10;;;;;;;2.38;0.50;;;22.10;56.90;;;;;;5086938;28;20036;-67
2022/08/28 02:32:36;;;;;;;3.15;0.70;;;22.10;56.90;;;;;;5069859;28;20040;-67
2022/08/28 02:35:04;;;;;;;1.00;0.40;;;22.10;56.90;;;;;;5074356;28;20044;-67
2022/08/28 02:37:29;;;;;;;1.20;0.40;;;22.10;56.90;;;;;;5073527;28;20039;-67
2022/08/28 02:39:56;;;;;;;1.55;0.68;;;22.10;57.00;;;;;;5073534;28;20553;-67
2022/08/28 02:42:23;;;;;;;1.52;0.55;;;22.10;56.90;;;;;;5074342;28;20056;-67
2022/08/28 02:44:48;;;;;;;1.20;0.43;;;22.10;56.90;;;;;;5073368;28;20040;-67
2022/08/28 02:47:14;;;;;;;1.75;0.40;;;22.10;56.90;;;;;;5073361;28;20032;-67
2022/08/28 02:49:41;;;;;;;0.95;0.77;;;22.10;56.90;;;;;;5073409;28;20043;-67
2022/08/28 02:52:07;;;;;;;1.55;0.30;;;22.10;56.90;;;;;;5073015;28;20044;-67
2022/08/28 02:54:34;;;;;;;2.03;0.60;;;22.10;57.00;;;;;;5072871;28;20064;-67
2022/08/28 02:57:00;;;;;;;1.50;0.50;;;22.10;56.90;;;;;;5072936;28;20070;-67
2022/08/28 02:59:26;;;;;;;1.30;0.50;;;22.00;56.90;;;;;;5073066;28;20048;-67
2022/08/28 03:01:52;;;;;;;1.63;0.50;;;22.10;56.90;;;;;;5072768;28;20404;-67
2022/08/28 03:04:17;;;;;;;1.40;0.40;;;22.10;57.00;;;;;;5072937;28;20468;-67
2022/08/28 03:06:43;;;;;;;1.05;0.40;;;22.00;56.90;;;;;;5072762;28;20047;-67
2022/08/28 03:09:09;;;;;;;1.55;0.40;;;22.00;56.90;;;;;;5072872;28;20044;-67
2022/08/28 03:11:35;;;;;;;1.40;0.50;;;22.10;56.90;;;;;;5072891;28;20044;-67
2022/08/28 03:14:02;;;;;;;1.92;0.45;;;22.00;56.90;;;;;;5072632;28;20055;-67
2022/08/28 03:16:28;;;;;;;0.95;0.30;;;22.00;56.90;;;;;;5072863;28;20476;-67
2022/08/28 03:18:54;;;;;;;1.75;0.43;;;22.10;56.90;;;;;;5072490;28;20028;-67
2022/08/28 03:21:20;;;;;;;0.90;0.40;;;22.00;56.90;;;;;;5072522;28;20041;-67
2022/08/28 03:23:46;;;;;;;1.17;0.40;;;22.00;56.90;;;;;;5072033;28;20078;-67
2022/08/28 03:26:15;;;;;;;1.98;0.63;;;22.00;56.90;;;;;;5072344;28;20044;-67
2022/08/28 03:28:44;;;;;;;1.13;0.60;;;22.00;56.90;;;;;;5072542;28;20447;-67
2022/08/28 03:31:12;;;;;;;2.63;0.80;;;22.00;56.90;;;;;;5072541;28;20430;-67
2022/08/28 03:33:40;;;;;;;1.38;0.50;;;22.00;56.90;;;;;;5072533;28;20098;-67
2022/08/28 03:36:07;;;;;;;1.20;0.40;;;22.00;56.90;;;;;;5072095;28;20041;-67
2022/08/28 03:38:34;;;;;;;1.88;0.60;;;21.90;56.80;;;;;;5072355;28;20115;-67
2022/08/28 03:41:00;;;;;;;1.38;0.40;;;22.00;57.00;;;;;;5072006;28;20075;-67
2022/08/28 03:43:26;;;;;;;1.00;0.55;;;21.90;56.90;;;;;;5072065;28;20181;-67
2022/08/28 03:48:35;;;;;;;1.55;0.70;;;21.90;56.90;;;;;;5089519;28;20364;-67
2022/08/28 03:51:05;;;;;;;0.90;0.30;;;21.90;56.90;;;;;;5088454;28;20439;-67
2022/08/28 03:53:31;;;;;;;1.35;0.57;;;21.90;56.90;;;;;;5088127;28;20047;-67
2022/08/28 03:55:58;;;;;;;2.25;0.40;;;22.00;57.00;;;;;;5087886;28;20048;-67
2022/08/28 03:58:24;;;;;;;1.35;0.47;;;21.90;56.90;;;;;;5105423;28;20393;-67
2022/08/28 04:00:50;;;;;;;1.23;0.40;;;21.90;56.90;;;;;;5087922;28;20048;-67
2022/08/28 04:03:16;;;;;;;1.20;0.40;;;21.90;56.90;;;;;;5089189;28;20047;-67
2022/08/28 04:05:43;;;;;;;0.90;0.40;;;21.90;56.90;;;;;;5087737;28;20044;-67
2022/08/28 04:08:12;;;;;;;2.58;0.50;;;21.90;56.90;;;;;;5087669;28;20499;-67
2022/08/28 04:10:38;;;;;;;1.10;0.60;;;21.90;56.90;;;;;;5087945;28;20488;-67
2022/08/28 04:13:04;;;;;;;0.90;0.40;;;21.90;56.90;;;;;;5087737;28;20052;-67
2022/08/28 04:15:29;;;;;;;1.30;0.50;;;21.90;56.90;;;;;;5087692;28;20051;-67
2022/08/28 04:17:55;;;;;;;1.10;0.30;;;21.90;56.90;;;;;;5087607;28;20082;-67
2022/08/28 04:20:21;;;;;;;1.60;0.47;;;21.90;56.90;;;;;;5087566;28;20037;-67
2022/08/28 04:22:47;;;;;;;1.23;0.32;;;21.90;56.90;;;;;;5088799;28;20068;-67
2022/08/28 04:25:13;;;;;;;2.08;0.70;;;21.90;56.90;;;;;;5088983;28;20036;-67
2022/08/28 04:27:39;;;;;;;1.17;0.50;;;21.80;56.80;;;;;;5087330;28;20068;-67
2022/08/28 04:30:06;;;;;;;0.95;0.57;;;21.90;56.90;;;;;;5088755;28;20048;-67
2022/08/28 04:32:34;;;;;;;1.17;0.40;;;21.90;56.90;;;;;;5087594;28;20517;-67
2022/08/28 04:35:00;;;;;;;1.05;0.40;;;21.80;56.90;;;;;;5088569;28;20395;-67
2022/08/28 04:37:26;;;;;;;1.00;0.30;;;21.90;56.90;;;;;;5088422;28;20044;-67
2022/08/28 04:39:52;;;;;;;0.60;0.30;;;21.80;56.80;;;;;;5087525;28;20079;-67
2022/08/28 04:42:18;;;;;;;1.83;0.70;;;21.80;56.90;;;;;;5087144;28;20040;-67
2022/08/28 04:44:43;;;;;;;1.35;0.60;;;21.80;56.90;;;;;;5087143;28;20045;-67
2022/08/28 04:47:09;;;;;;;1.98;0.50;;;21.80;56.90;;;;;;5086742;28;20066;-67
2022/08/28 04:49:35;;;;;;;0.90;0.40;;;21.80;56.80;;;;;;5087015;28;20468;-67
2022/08/28 04:52:01;;;;;;;0.90;0.45;;;21.80;56.80;;;;;;5087171;28;20115;-67
2022/08/28 04:54:26;;;;;;;0.90;0.30;;;21.80;56.80;;;;;;5087233;28;20051;-67
2022/08/28 04:56:52;;;;;;;1.00;0.43;;;21.90;57.00;;;;;;5087145;28;20396;-67
2022/08/28 04:59:18;;;;;;;0.95;0.55;;;21.80;57.60;;;;;;5076713;28;20118;-67
2022/08/28 05:01:43;;;;;;;1.35;0.50;;;21.80;56.80;;;;;;5073302;28;20044;-67
2022/08/28 05:04:10;;;;;;;1.20;0.40;;;21.80;56.80;;;;;;5073353;28;20041;-67
2022/08/28 05:06:42;;;;;;;1.00;0.30;;;21.80;56.80;;;;;;5073351;28;20051;-67
2022/08/28 05:09:07;;;;;;;1.55;0.40;;;21.80;56.90;;;;;;5073121;28;20515;-67
2022/08/28 05:11:33;;;;;;;2.47;0.50;;;21.80;56.90;;;;;;5074429;28;20123;-67
2022/08/28 05:13:59;;;;;;;1.35;0.82;;;21.80;56.90;;;;;;5073114;28;20036;-67
2022/08/28 05:16:25;;;;;;;1.73;0.40;;;21.80;56.80;;;;;;5073393;28;20048;-67
2022/08/28 05:18:50;;;;;;;1.50;0.50;;;21.80;56.80;;;;;;5074291;28;20043;-67
2022/08/28 05:21:20;;;;;;;0.65;0.22;;;21.80;56.80;;;;;;5073252;28;20041;-67
2022/08/28 05:23:47;;;;;;;1.15;0.32;;;21.70;56.80;;;;;;5073155;28;20488;-67
2022/08/28 05:26:15;;;;;;;1.08;0.50;;;21.70;56.80;;;;;;5072810;28;20044;-67
2022/08/28 05:28:42;;;;;;;1.38;0.40;;;21.70;56.80;;;;;;5073057;28;20041;-67
2022/08/28 05:31:10;;;;;;;3.08;0.65;;;21.70;56.70;;;;;;5073070;28;20040;-67
2022/08/28 05:33:36;;;;;;;1.95;0.30;;;21.70;56.80;;;;;;5072924;28;20044;-67
2022/08/28 05:36:05;;;;;;;1.00;0.32;;;21.70;56.80;;;;;;5073919;28;20075;-67
2022/08/28 05:38:31;;;;;;;1.80;0.30;;;21.70;56.80;;;;;;5073924;28;20044;-67
2022/08/28 05:40:57;;;;;;;1.23;0.40;;;21.70;56.80;;;;;;5073859;28;20036;-67
2022/08/28 05:43:24;;;;;;;0.90;0.40;;;21.70;56.80;;;;;;5073839;28;20506;-67
2022/08/28 05:46:09;;;;;;;2.05;0.40;;;21.70;56.80;;;;;;5073794;28;20037;-67
2022/08/28 05:48:37;;;;;;;1.67;0.40;;;21.70;56.80;;;;;;5072453;28;20048;-67
2022/08/28 05:51:09;;;;;;;1.70;0.30;;;21.70;56.80;;;;;;5072378;28;20040;-67
2022/08/28 05:53:39;;;;;;;0.85;0.35;;;21.70;56.80;;;;;;5072359;28;20115;-67
2022/08/28 05:56:07;;;;;;;0.80;0.30;;;21.70;56.80;;;;;;5072597;28;20075;-67
2022/08/28 05:58:33;;;;;;;1.10;0.45;;;21.70;56.80;;;;;;5072108;28;20120;-67
2022/08/28 06:03:50;;;;;;;1.10;0.30;;;21.70;56.80;;;;;;5089398;27;20762;-67
2022/08/28 06:06:15;;;;;;;1.88;0.32;;;21.60;56.70;;;;;;5088121;28;20028;-68
2022/08/28 06:08:41;;;;;;;0.93;0.30;;;21.60;56.70;;;;;;5088121;28;20094;-67
2022/08/28 06:11:08;;;;;;;1.02;0.40;;;21.60;56.70;;;;;;5088224;28;20047;-67
2022/08/28 06:13:34;;;;;;;1.38;0.35;;;21.60;56.70;;;;;;5087981;28;20473;-67
2022/08/28 06:16:00;;;;;;;0.70;0.30;;;21.70;56.70;;;;;;5088105;28;20396;-67
2022/08/28 06:18:26;;;;;;;0.45;0.25;;;21.70;56.70;;;;;;5088202;28;20029;-69
2022/08/28 06:20:53;;;;;;;2.22;0.30;;;21.60;56.60;;;;;;5087798;28;20446;-69
2022/08/28 06:23:20;;;;;;;1.10;0.40;;;21.60;56.60;;;;;;5089203;28;20388;-69
2022/08/28 06:25:48;;;;;;;1.67;0.40;;;21.70;56.70;;;;;;5087788;28;20041;-69
2022/08/28 06:28:16;;;;;;;0.98;0.30;;;21.60;56.60;;;;;;5088004;28;20089;-69
2022/08/28 06:30:42;;;;;;;1.30;0.40;;;21.60;56.60;;;;;;5088886;28;20047;-69
2022/08/28 06:33:09;;;;;;;1.10;0.75;;;21.60;56.60;;;;;;5087632;28;20040;-69
2022/08/28 06:35:40;;;;;;;0.93;0.40;;;21.60;56.60;;;;;;5087834;28;20040;-69
2022/08/28 06:38:07;;;;;;;1.40;0.35;;;21.60;56.60;;;;;;5088975;28;20519;-69
2022/08/28 06:40:38;;;;;;;1.08;0.30;;;21.60;56.60;;;;;;5087688;28;20056;-69
2022/08/28 06:43:04;;;;;;;1.40;0.25;;;21.60;56.60;;;;;;5087405;28;20040;-69
2022/08/28 06:45:30;;;;;;;1.30;0.30;;;21.60;56.60;;;;;;5088489;28;20040;-69
2022/08/28 06:47:57;;;;;;;1.45;0.47;;;21.60;56.60;;;;;;5087598;28;20048;-69
2022/08/28 06:50:23;;;;;;;0.95;0.30;;;21.60;56.60;;;;;;5087537;28;20388;-69
2022/08/28 06:52:48;;;;;;;1.17;0.38;;;21.60;56.60;;;;;;5087563;28;20047;-69
2022/08/28 06:55:15;;;;;;;1.25;0.30;;;21.60;56.60;;;;;;5088544;28;20115;-69
2022/08/28 06:57:41;;;;;;;1.75;0.30;;;21.60;56.60;;;;;;5087403;28;20079;-69
2022/08/28 07:00:07;;;;;;;0.80;0.30;;;21.60;56.60;;;;;;5087306;28;20076;-69
2022/08/28 07:02:33;;;;;;;1.23;0.28;;;21.60;56.60;;;;;;5086637;28;20062;-69
2022/08/28 07:04:59;;;;;;;1.38;0.38;;;21.60;56.60;;;;;;5087030;28;20036;-69
2022/08/28 07:07:25;;;;;;;1.17;0.30;;;21.60;56.60;;;;;;5087141;28;20040;-69
2022/08/28 07:09:50;;;;;;;1.13;0.60;;;21.60;56.60;;;;;;5087022;28;20372;-69
2022/08/28 07:12:17;;;;;;;1.42;0.50;;;21.60;56.60;;;;;;5086745;28;20044;-69
2022/08/28 07:14:43;;;;;;;1.00;0.40;;;21.60;56.60;;;;;;5076546;28;20047;-69
2022/08/28 07:17:09;;;;;;;1.00;0.30;;;21.70;56.60;;;;;;5073537;28;20052;-69
2022/08/28 07:19:36;;;;;;;0.88;0.30;;;21.60;56.50;;;;;;5073543;28;20048;-69
2022/08/28 07:22:02;;;;;;;1.88;0.40;;;21.60;56.50;;;;;;5073224;28;20032;-69
2022/08/28 07:24:28;;;;;;;1.33;0.30;;;21.60;56.50;;;;;;5073164;28;20078;-69
2022/08/28 07:26:54;;;;;;;0.88;0.30;;;21.60;56.50;;;;;;5073380;28;20108;-69
2022/08/28 07:29:20;;;;;;;1.50;0.47;;;21.60;56.50;;;;;;5073463;28;20497;-69
2022/08/28 07:31:51;;;;;;;1.05;0.35;;;21.60;56.60;;;;;;5072927;28;20086;-69
2022/08/28 07:34:20;;;;;;;1.27;0.40;;;21.60;56.50;;;;;;5072931;28;20503;-69
2022/08/28 07:36:45;;;;;;;1.63;0.60;;;21.60;56.50;;;;;;5072881;28;20123;-69
2022/08/28 07:39:14;;;;;;;1.23;0.30;;;21.60;56.50;;;;;;5073131;28;20140;-69
2022/08/28 07:41:41;;;;;;;0.80;0.20;;;21.60;56.50;;;;;;5073021;28;20044;-69
2022/08/28 07:46:56;;;;;;;0.57;0.25;;;21.60;56.50;;;;;;5072813;28;20048;-69
2022/08/28 07:49:23;;;;;;;1.23;0.32;;;21.60;56.50;;;;;;5072687;28;20068;-69
2022/08/28 07:51:49;;;;;;;0.90;0.30;;;21.60;56.50;;;;;;5072697;28;20048;-69
2022/08/28 07:54:16;;;;;;;0.75;0.30;;;21.60;56.50;;;;;;5072570;28;20040;-69
2022/08/28 07:56:41;;;;;;;0.75;0.30;;;21.60;56.50;;;;;;5072547;28;20044;-69
2022/08/28 07:59:09;;;;;;;0.63;0.28;;;21.60;56.50;;;;;;5072317;28;20040;-69
2022/08/28 08:01:38;;;;;;;0.95;0.35;;;21.60;56.40;;;;;;5072294;28;20225;-69
2022/08/28 08:04:06;;;;;;;0.80;0.30;;;21.60;56.40;;;;;;5072388;28;20072;-69
2022/08/28 08:06:33;;;;;;;1.40;0.30;;;21.60;56.40;;;;;;5072624;28;20400;-69
2022/08/28 08:08:59;;;;;;;1.65;0.30;;;21.60;56.40;;;;;;5072481;28;20089;-69
2022/08/28 08:11:25;;;;;;;1.67;0.40;;;21.60;56.40;;;;;;5072233;28;20551;-69
2022/08/28 08:13:53;;;;;;;0.50;0.20;;;21.60;56.50;;;;;;5072136;28;20507;-69
2022/08/28 08:16:22;;;;;;;1.08;0.30;;;21.60;56.40;;;;;;5072175;28;20043;-69
2022/08/28 08:18:49;;;;;;;0.98;0.30;;;21.60;56.40;;;;;;5073490;28;20044;-69
2022/08/28 08:21:18;;;;;;;0.70;0.30;;;21.60;56.40;;;;;;5072082;28;20036;-69
2022/08/28 08:23:44;;;;;;;1.45;0.43;;;21.60;56.40;;;;;;5071959;28;20052;-69
2022/08/28 08:26:12;;;;;;;0.52;0.20;;;21.60;56.40;;;;;;5070906;28;20044;-69
2022/08/28 08:28:39;;;;;;;1.05;0.20;;;21.60;56.40;;;;;;5073202;28;20111;-69
2022/08/28 08:33:50;;;;;;;1.67;0.20;;;21.60;56.40;;;;;;5089371;27;20386;-67
2022/08/28 08:36:18;;;;;;;0.65;0.50;;;21.60;56.40;;;;;;5088433;28;20450;-67
2022/08/28 08:38:45;;;;;;;0.93;0.20;;;21.60;56.40;;;;;;5105317;28;20400;-67
2022/08/28 08:52:35;;;;;;;1.00;0.30;;;21.60;56.30;;;;;;5130391;27;20128;-67
2022/08/28 08:57:40;;;;;;;0.70;0.20;;;21.60;56.30;;;;;;5130243;27;20914;-67
2022/08/28 09:00:09;;;;;;;1.20;0.55;;;21.70;57.00;;;;;;5129135;28;20122;-67
2022/08/28 09:02:42;;;;;;;0.85;0.30;;;21.70;56.20;;;;;;5129254;28;20027;-67
2022/08/28 09:05:12;;;;;;;1.33;0.30;;;21.60;56.10;;;;;;5128775;28;20479;-67
2022/08/28 09:07:51;;;;;;;0.85;0.40;;;21.70;56.20;;;;;;5128791;28;20081;-67
2022/08/28 09:10:18;;;;;;;0.95;0.30;;;21.70;56.10;;;;;;5128654;28;20479;-67
2022/08/28 09:15:31;;;;;;;1.17;0.30;;;21.70;56.10;;;;;;5089424;28;20360;-67
2022/08/28 09:18:12;;;;;;;0.80;0.30;;;21.70;56.80;;;;;;5089415;28;20477;-67
2022/08/28 09:20:39;;;;;;;1.08;0.20;;;21.70;56.00;;;;;;5087998;28;20117;-67
2022/08/28 09:23:05;;;;;;;0.52;0.20;;;21.70;55.90;;;;;;5088220;28;20067;-67
2022/08/28 09:28:39;;;;;;;0.95;0.30;;;21.70;55.80;;;;;;5130415;27;20759;-67
2022/08/28 09:33:47;;;;;;;1.98;0.30;;;21.70;55.80;;;;;;5089477;28;20929;-67
2022/08/28 09:36:34;;;;;;;0.40;0.20;;;21.80;55.70;;;;;;5088419;28;20094;-67
2022/08/28 09:39:20;;;;;;;0.95;0.30;;;21.80;55.70;;;;;;5089362;28;20392;-67
2022/08/28 09:44:29;;;;;;;1.25;0.20;;;21.80;55.50;;;;;;5110012;27;20412;-67
2022/08/28 09:46:55;;;;;;;2.10;0.40;;;21.80;55.60;;;;;;5091756;28;20039;-67
2022/08/28 09:49:26;;;;;;;0.65;0.10;;;21.80;55.50;;;;;;5091543;28;20503;-67
2022/08/28 09:51:53;;;;;;;2.28;0.65;;;21.80;55.40;;;;;;5091665;28;20043;-67
2022/08/28 09:57:06;;;;;;;0.80;0.30;;;21.80;55.30;;;;;;5130189;27;20104;-67
2022/08/28 09:59:32;;;;;;;0.65;0.20;;;21.90;55.30;;;;;;5128964;27;20053;-67
2022/08/28 10:02:16;;;;;;;1.17;0.30;;;21.90;55.20;;;;;;5128804;28;20134;-67
2022/08/28 10:04:56;;;;;;;1.13;0.30;;;21.90;55.10;;;;;;5129182;28;20450;-67
2022/08/28 10:18:59;;;;;;;1.30;0.30;;;21.90;54.80;;;;;;5089401;27;20851;-67
2022/08/28 10:40:52;;;;;;;1.33;0.35;;;22.00;54.70;;;;;;5130153;27;20430;-67
2022/08/28 10:43:43;;;;;;;1.13;0.30;;;22.00;54.60;;;;;;5128929;28;20471;-67
2022/08/28 10:46:15;;;;;;;0.65;0.20;;;22.10;54.50;;;;;;5128999;28;20679;-67
2022/08/28 10:48:47;;;;;;;0.80;0.30;;;22.10;54.60;;;;;;5129132;28;20035;-67
2022/08/28 10:51:36;;;;;;;1.30;0.40;;;22.10;54.50;;;;;;5128828;28;20043;-67
2022/08/28 10:54:15;;;;;;;1.48;0.25;;;22.00;54.40;;;;;;5130015;27;20402;-67
2022/08/28 10:56:50;;;;;;;0.75;0.38;;;22.00;54.50;;;;;;5129001;28;20035;-67
2022/08/28 10:59:15;;;;;;;1.05;0.30;;;22.00;54.40;;;;;;5128685;28;20046;-67
2022/08/28 11:01:42;;;;;;;1.20;0.20;;;22.10;54.50;;;;;;5129846;28;20043;-67
2022/08/28 11:04:17;;;;;;;1.45;0.35;;;22.00;54.40;;;;;;5128549;28;20065;-67
2022/08/28 11:06:49;;;;;;;0.82;0.30;;;22.10;54.40;;;;;;5120291;28;20667;-67
2022/08/28 11:09:30;;;;;;;1.27;0.63;;;22.10;54.40;;;;;;5108207;28;20489;-67
2022/08/28 11:20:23;;;;;;;1.27;0.20;;;22.00;54.40;;;;;;5130327;27;20575;-67
2022/08/28 11:22:58;;;;;;;1.25;0.40;;;22.10;54.40;;;;;;5128875;28;20073;-67
2022/08/28 11:25:33;;;;;;;0.80;0.30;;;22.00;54.40;;;;;;5128878;28;20050;-67
2022/08/28 11:28:21;;;;;;;0.70;0.20;;;22.10;54.40;;;;;;5128931;28;20483;-67
2022/08/28 11:31:09;;;;;;;1.48;0.30;;;22.00;54.40;;;;;;5128751;28;20039;-67
2022/08/28 11:39:04;;;;;;;1.42;0.20;;;22.00;54.40;;;;;;5130374;27;20406;-67
2022/08/28 11:41:35;;;;;;;0.88;0.20;;;22.00;54.30;;;;;;5128860;28;20134;-67
2022/08/28 11:46:49;;;;;;;1.00;0.40;;;22.00;54.40;;;;;;5127336;27;1854676;-67
2022/08/28 11:49:37;;;;;;;1.13;0.20;;;22.00;54.30;;;;;;5153042;27;20485;-67
2022/08/28 12:03:52;;;;;;;0.98;0.40;;;22.10;54.20;;;;;;5130402;27;20403;-67
2022/08/28 12:06:47;;;;;;;0.77;0.22;;;22.00;54.20;;;;;;5124459;28;20039;-67
2022/08/28 12:15:06;;;;;;;0.70;0.30;;;22.00;54.10;;;;;;5130344;27;20415;-67
2022/08/28 12:17:42;;;;;;;1.20;0.20;;;22.00;54.20;;;;;;5128992;28;20133;-67
2022/08/28 12:20:18;;;;;;;0.77;0.25;;;22.00;54.10;;;;;;5128963;27;20483;-67
2022/08/28 12:22:51;;;;;;;0.90;0.30;;;22.00;54.10;;;;;;5129231;28;20426;-67
2022/08/28 12:25:39;;;;;;;1.40;0.32;;;22.00;54.10;;;;;;5129165;28;20070;-67
2022/08/28 12:28:38;;;;;;;1.13;0.30;;;22.10;54.10;;;;;;5128696;28;20039;-67
2022/08/28 12:36:25;;;;;;;1.60;0.22;;;22.10;54.10;;;;;;5130263;27;20353;-68
2022/08/28 12:38:53;;;;;;;1.10;0.20;;;22.10;54.00;;;;;;5129242;28;20116;-67
2022/08/28 12:41:20;;;;;;;1.92;0.30;;;22.10;54.10;;;;;;5129162;28;20447;-67
2022/08/28 12:43:50;;;;;;;1.92;0.20;;;22.10;54.10;;;;;;5128848;28;20136;-67
2022/08/28 12:46:28;;;;;;;0.80;0.30;;;22.10;54.00;;;;;;5128846;28;20143;-67
2022/08/28 12:51:36;;;;;;;1.75;0.30;;;22.10;54.00;;;;;;5130385;27;20759;-67
2022/08/28 12:54:05;;;;;;;0.82;0.30;;;22.10;53.90;;;;;;5129183;28;20439;-67
2022/08/28 12:56:34;;;;;;;1.17;0.20;;;22.10;54.00;;;;;;5129306;28;20387;-67
2022/08/28 12:59:40;;;;;;;0.60;0.20;;;22.10;54.00;;;;;;5146298;27;20034;-67
2022/08/28 13:02:18;;;;;;;1.25;0.38;;;22.10;53.90;;;;;;5128715;28;20039;-67
2022/08/28 13:04:53;;;;;;;1.38;0.30;;;22.10;53.90;;;;;;5128845;28;20479;-67
2022/08/28 13:07:26;;;;;;;1.35;0.30;;;22.10;53.90;;;;;;5128986;28;20081;-67
2022/08/28 13:09:54;;;;;;;1.20;0.45;;;22.00;53.90;;;;;;5128682;28;20046;-67
2022/08/28 13:15:03;;;;;;;1.30;0.30;;;22.10;53.90;;;;;;5130321;27;20844;-67
2022/08/28 13:17:49;;;;;;;1.48;0.38;;;22.10;53.80;;;;;;5129232;28;20062;-67
2022/08/28 13:20:33;;;;;;;0.77;0.30;;;22.10;53.80;;;;;;5129136;28;20118;-67
2022/08/28 13:23:00;;;;;;;0.98;0.40;;;22.10;53.70;;;;;;5146249;27;20043;-67
2022/08/28 13:25:29;;;;;;;2.13;0.43;;;22.10;53.80;;;;;;5128865;28;20039;-67
2022/08/28 13:27:59;;;;;;;1.40;0.30;;;22.10;53.70;;;;;;5129169;28;20043;-67
2022/08/28 13:30:28;;;;;;;1.50;0.30;;;22.10;53.70;;;;;;5128698;28;20050;-67
2022/08/28 13:35:39;;;;;;;1.20;0.28;;;22.10;53.60;;;;;;5130261;27;20357;-67
2022/08/28 13:38:09;;;;;;;1.02;0.38;;;22.10;53.60;;;;;;5129257;28;20039;-67
2022/08/28 13:41:00;;;;;;;1.10;0.30;;;22.10;53.50;;;;;;5146102;27;20044;-67
2022/08/28 13:43:29;;;;;;;0.63;0.10;;;22.10;53.50;;;;;;5146264;27;20112;-67
2022/08/28 13:45:55;;;;;;;1.05;0.30;;;22.10;53.50;;;;;;5129067;28;20483;-67
2022/08/28 13:48:23;;;;;;;0.65;0.40;;;22.10;53.50;;;;;;5129002;28;20050;-67
2022/08/28 13:50:55;;;;;;;0.55;0.20;;;22.10;53.50;;;;;;5129016;28;20039;-67
2022/08/28 13:53:21;;;;;;;0.90;0.30;;;22.10;53.50;;;;;;5128641;28;20538;-67
2022/08/28 13:55:49;;;;;;;1.10;0.20;;;22.10;53.50;;;;;;5129874;27;20182;-67
2022/08/28 13:58:15;;;;;;;0.70;0.30;;;22.10;53.40;;;;;;5128749;28;20036;-67
2022/08/28 14:00:44;;;;;;;1.15;0.40;;;22.10;53.50;;;;;;5128793;28;20126;-67
2022/08/28 14:03:41;;;;;;;1.75;0.30;;;22.10;53.40;;;;;;5128824;28;20391;-67
2022/08/28 14:05:55;;;;;;;1.95;0.20;;;22.10;53.50;;;;;;5128280;27;20272;-67
2022/08/28 14:08:21;;;;;;;0.50;0.30;;;22.10;53.50;;;;;;5129706;28;20300;-67
2022/08/28 14:10:47;;;;;;;1.05;0.30;;;22.10;53.50;;;;;;5129423;28;20031;-67
2022/08/28 14:13:13;;;;;;;0.82;0.20;;;22.20;53.50;;;;;;5129553;27;20039;-67
2022/08/28 14:15:38;;;;;;;1.58;0.40;;;22.20;53.50;;;;;;5128372;27;20434;-67
2022/08/28 14:18:04;;;;;;;0.95;0.20;;;22.10;53.40;;;;;;5128317;28;20032;-67
2022/08/28 14:20:31;;;;;;;0.70;0.30;;;22.20;53.50;;;;;;5129402;28;20031;-67
2022/08/28 14:22:56;;;;;;;2.47;0.30;;;22.20;53.50;;;;;;5128191;28;20047;-67
2022/08/28 14:25:23;;;;;;;0.68;0.20;;;22.20;53.50;;;;;;5127948;28;20040;-67
2022/08/28 14:27:48;;;;;;;1.23;0.40;;;22.20;53.50;;;;;;5128567;28;20139;-67
2022/08/28 14:30:14;;;;;;;1.20;0.30;;;22.20;53.60;;;;;;5127955;28;20533;-67
2022/08/28 14:32:40;;;;;;;1.10;0.30;;;22.20;53.50;;;;;;5129381;28;20051;-67
2022/08/28 14:35:06;;;;;;;0.73;0.30;;;22.20;53.50;;;;;;5127629;28;20043;-67
2022/08/28 14:37:32;;;;;;;0.63;0.20;;;22.20;53.50;;;;;;5128066;28;20116;-67
2022/08/28 14:39:57;;;;;;;0.98;0.20;;;22.20;53.50;;;;;;5128073;28;20073;-67
2022/08/28 14:42:25;;;;;;;0.63;0.20;;;22.20;54.30;;;;;;5127625;28;20052;-67
2022/08/28 14:44:51;;;;;;;0.80;0.20;;;22.20;53.60;;;;;;5126557;28;20050;-67
2022/08/28 14:47:16;;;;;;;0.65;0.20;;;22.20;53.60;;;;;;5113937;28;20479;-67
2022/08/28 14:49:42;;;;;;;1.38;0.28;;;22.20;53.50;;;;;;5115487;28;20035;-67
2022/08/28 14:52:08;;;;;;;1.77;0.20;;;22.20;53.60;;;;;;5114103;28;20051;-67
2022/08/28 14:54:34;;;;;;;2.05;0.32;;;22.20;53.60;;;;;;5113899;28;20395;-67
2022/08/28 14:56:59;;;;;;;0.88;0.30;;;22.20;53.60;;;;;;5113597;28;20044;-67
2022/08/28 14:59:27;;;;;;;0.98;0.20;;;22.20;53.60;;;;;;5115201;28;20032;-67
2022/08/28 15:01:56;;;;;;;1.88;0.35;;;22.20;53.60;;;;;;5113653;28;20110;-67